createdAt,value
2022-11-07T00:09:58.450Z,1.60
2022-11-07T00:23:58.492Z,2.40
2022-11-07T00:37:58.512Z,1.60
2022-11-07T00:51:58.501Z,2.20
2022-11-07T01:05:58.496Z,1.80
2022-11-07T01:19:58.490Z,1.50
2022-11-07T01:33:58.482Z,1.50
2022-11-07T01:47:58.515Z,2.30
2022-11-07T02:01:58.654Z,1.60
2022-11-07T02:15:58.815Z,2.50
2022-11-07T02:29:58.824Z,1.30
2022-11-07T02:43:58.819Z,1.50
2022-11-07T02:57:58.842Z,1.30
2022-11-07T03:11:58.827Z,1.15
2022-11-07T03:25:59.349Z,1.05
2022-11-07T03:39:58.834Z,1.30
2022-11-07T03:53:58.838Z,1.30
2022-11-07T04:07:58.872Z,1.10
2022-11-07T04:21:58.845Z,0.90
2022-11-07T04:35:58.850Z,0.90
2022-11-07T04:49:58.854Z,1.00
2022-11-07T05:03:58.852Z,1.30
2022-11-07T05:17:58.903Z,0.80
2022-11-07T05:31:58.859Z,5.50
2022-11-07T05:45:58.871Z,6.80
2022-11-07T06:00:58.879Z,8.30
2022-11-07T06:15:58.878Z,9.00
2022-11-07T06:31:58.884Z,5.80
2022-11-07T06:46:58.876Z,10.20
2022-11-07T07:01:58.904Z,19.00
2022-11-07T07:16:58.897Z,16.30
2022-11-07T07:32:58.937Z,13.90
2022-11-07T07:47:58.936Z,14.70
2022-11-07T08:02:58.945Z,11.35
2022-11-07T08:17:59.067Z,10.20
2022-11-07T08:32:59.041Z,9.80
2022-11-07T08:47:59.052Z,7.80
2022-11-07T09:03:39.062Z,6.30
2022-11-07T09:17:59.073Z,6.80
2022-11-07T09:32:59.094Z,6.50
2022-11-07T09:48:59.231Z,6.10
2022-11-07T10:04:23.373Z,5.75
2022-11-07T10:18:59.251Z,5.40
2022-11-07T10:33:59.230Z,3.80
2022-11-07T10:48:59.259Z,4.80
2022-11-07T11:03:59.268Z,4.00
2022-11-07T11:18:59.324Z,3.70
2022-11-07T11:33:59.334Z,2.60
2022-11-07T11:48:59.335Z,2.70
2022-11-07T12:04:01.179Z,3.70
2022-11-07T12:18:59.675Z,3.70
2022-11-07T12:33:59.686Z,2.00
2022-11-07T12:49:59.804Z,3.20
2022-11-07T13:05:00.006Z,3.50
2022-11-07T13:20:00.015Z,5.90
2022-11-07T13:35:00.097Z,4.00
2022-11-07T13:50:00.169Z,5.40
2022-11-07T14:05:15.691Z,5.40
2022-11-07T14:20:00.247Z,3.60
2022-11-07T14:35:00.475Z,4.20
2022-11-07T14:50:00.795Z,3.90
2022-11-07T15:05:08.115Z,3.20
2022-11-07T15:20:00.856Z,3.60
2022-11-07T15:35:17.222Z,3.30
2022-11-07T15:50:00.892Z,2.80
2022-11-07T16:06:00.898Z,3.40
2022-11-07T16:21:00.974Z,3.30
2022-11-07T16:36:01.087Z,2.70
2022-11-07T16:50:01.108Z,3.00
2022-11-07T17:04:01.223Z,2.10
2022-11-07T17:18:04.688Z,2.40
2022-11-07T17:32:01.372Z,2.80
2022-11-07T17:46:01.407Z,2.40
2022-11-07T18:00:01.397Z,2.80
2022-11-07T18:14:01.405Z,3.40
2022-11-07T18:28:01.595Z,8.30
2022-11-07T18:42:01.608Z,2.20
2022-11-07T18:56:01.637Z,2.70
2022-11-07T19:10:01.667Z,2.50
2022-11-07T19:24:01.866Z,2.45
2022-11-07T19:38:05.015Z,1.95
2022-11-07T19:52:02.047Z,3.20
2022-11-07T20:06:02.040Z,12.30
2022-11-07T20:20:05.340Z,4.90
2022-11-07T20:34:02.191Z,3.20
2022-11-07T20:49:02.277Z,10.00
2022-11-07T21:03:02.285Z,10.80
2022-11-07T21:17:02.289Z,12.50
2022-11-07T21:28:39.150Z,14.20
2022-11-07T21:41:39.116Z,14.50
2022-11-07T21:55:39.218Z,12.10
2022-11-07T22:09:39.306Z,11.90
2022-11-07T22:23:39.267Z,12.10
2022-11-07T22:37:39.388Z,11.80
2022-11-07T22:51:39.629Z,10.50
2022-11-07T23:05:39.557Z,10.60
2022-11-07T23:19:39.621Z,10.20
2022-11-07T23:33:39.662Z,9.50
2022-11-07T23:47:40.393Z,8.30
